createdAt,value
2023-03-06T00:00:50.394Z,91.50
2023-03-06T00:03:16.935Z,91.98
2023-03-06T00:05:43.725Z,92.58
2023-03-06T00:08:10.870Z,91.62
2023-03-06T00:10:38.042Z,92.44
2023-03-06T00:13:08.380Z,92.86
2023-03-06T00:15:35.032Z,92.28
2023-03-06T00:18:04.543Z,92.98
2023-03-06T00:20:31.538Z,93.81
2023-03-06T00:22:58.284Z,93.42
2023-03-06T00:25:25.364Z,93.57
2023-03-06T00:27:52.281Z,93.34
2023-03-06T00:30:22.397Z,93.60
2023-03-06T00:32:49.454Z,93.66
2023-03-06T00:35:16.443Z,94.41
2023-03-06T00:37:43.700Z,94.56
2023-03-06T00:40:13.865Z,94.40
2023-03-06T00:42:40.914Z,94.23
2023-03-06T00:45:07.937Z,95.38
2023-03-06T00:47:34.840Z,95.70
2023-03-06T00:50:01.517Z,95.68
2023-03-06T00:52:27.943Z,96.27
2023-03-06T00:54:54.414Z,96.09
2023-03-06T00:57:20.950Z,96.61
2023-03-06T00:59:47.509Z,96.71
2023-03-06T01:02:14.256Z,97.06
2023-03-06T01:04:40.767Z,96.23
2023-03-06T01:07:07.380Z,97.12
2023-03-06T01:09:33.837Z,97.19
2023-03-06T01:12:00.521Z,96.98
2023-03-06T01:14:27.172Z,97.70
2023-03-06T01:16:53.767Z,97.60
2023-03-06T01:19:20.230Z,97.11
2023-03-06T01:21:46.668Z,97.19
2023-03-06T01:24:13.148Z,97.32
2023-03-06T01:26:39.697Z,97.48
2023-03-06T01:29:06.411Z,97.40
2023-03-06T01:31:33.131Z,96.83
2023-03-06T01:33:59.770Z,97.26
2023-03-06T01:36:26.214Z,97.77
2023-03-06T01:38:52.654Z,98.36
2023-03-06T01:41:21.132Z,98.44
2023-03-06T01:43:47.625Z,97.29
2023-03-06T01:46:22.857Z,97.74
2023-03-06T01:48:54.006Z,97.56
2023-03-06T01:51:22.044Z,97.60
2023-03-06T01:53:51.034Z,97.65
2023-03-06T01:56:17.874Z,97.83
2023-03-06T01:58:45.058Z,97.69
2023-03-06T02:01:14.847Z,97.99
2023-03-06T02:03:42.775Z,97.76
2023-03-06T02:06:09.642Z,98.46
2023-03-06T02:08:36.267Z,98.97
2023-03-06T02:11:08.622Z,98.22
2023-03-06T02:13:36.299Z,98.90
2023-03-06T02:16:02.904Z,98.43
2023-03-06T02:18:30.162Z,99.10
2023-03-06T02:21:04.326Z,99.52
2023-03-06T02:23:51.039Z,98.89
2023-03-06T02:26:18.926Z,99.23
2023-03-06T02:28:46.682Z,99.17
2023-03-06T02:31:23.751Z,99.09
2023-03-06T02:34:06.225Z,99.97
2023-03-06T02:36:37.879Z,99.65
2023-03-06T02:39:05.559Z,100.00
2023-03-06T02:41:32.128Z,100.00
2023-03-06T02:43:58.611Z,99.98
2023-03-06T02:46:25.174Z,99.80
2023-03-06T02:48:51.687Z,99.19
2023-03-06T02:51:18.130Z,99.63
2023-03-06T02:53:44.588Z,99.83
2023-03-06T02:56:11.002Z,99.71
2023-03-06T02:58:37.626Z,99.72
2023-03-06T03:01:04.782Z,100.00
2023-03-06T03:03:33.044Z,100.00
2023-03-06T03:06:00.776Z,99.70
2023-03-06T03:08:28.380Z,100.00
2023-03-06T03:10:56.513Z,100.00
2023-03-06T03:13:23.447Z,100.00
2023-03-06T03:16:07.736Z,99.76
2023-03-06T03:18:35.405Z,99.62
2023-03-06T03:21:02.316Z,99.71
2023-03-06T03:23:28.799Z,99.33
2023-03-06T03:25:55.279Z,100.00
2023-03-06T03:28:21.727Z,99.49
2023-03-06T03:30:48.330Z,99.97
2023-03-06T03:33:14.815Z,99.24
2023-03-06T03:35:41.457Z,99.45
2023-03-06T03:38:07.870Z,100.00
2023-03-06T03:40:34.552Z,100.00
2023-03-06T03:43:01.080Z,99.70
2023-03-06T03:45:27.621Z,100.00
2023-03-06T03:47:54.008Z,99.92
2023-03-06T03:50:20.597Z,99.96
2023-03-06T03:52:47.104Z,100.00
2023-03-06T03:55:13.655Z,100.00
2023-03-06T03:57:40.216Z,100.00
2023-03-06T04:00:08.155Z,99.96
2023-03-06T04:02:34.698Z,100.00
2023-03-06T04:05:01.181Z,100.00
2023-03-06T04:07:27.656Z,99.17
2023-03-06T04:09:54.177Z,99.47
2023-03-06T04:12:20.678Z,100.00
2023-03-06T04:14:47.198Z,100.00
2023-03-06T04:17:13.706Z,99.55
2023-03-06T04:19:40.127Z,100.00
2023-03-06T04:22:06.570Z,99.97
2023-03-06T04:24:33.009Z,99.85
2023-03-06T04:26:59.520Z,100.00
2023-03-06T04:29:26.036Z,100.00
2023-03-06T04:31:52.507Z,99.15
2023-03-06T04:34:18.912Z,99.83
2023-03-06T04:36:45.350Z,99.22
2023-03-06T04:39:13.039Z,100.00
2023-03-06T04:41:40.694Z,99.50
2023-03-06T04:44:08.127Z,99.96
2023-03-06T04:46:34.826Z,100.00
2023-03-06T04:49:01.347Z,100.00
2023-03-06T04:51:27.993Z,99.82
2023-03-06T04:53:54.493Z,100.00
2023-03-06T04:56:20.918Z,100.00
2023-03-06T04:58:47.392Z,100.00
2023-03-06T05:01:13.948Z,100.00
2023-03-06T05:03:40.740Z,100.00
2023-03-06T05:06:07.429Z,100.00
2023-03-06T05:08:33.958Z,100.00
2023-03-06T05:11:01.914Z,100.00
2023-03-06T05:13:29.072Z,100.00
2023-03-06T05:15:55.676Z,100.00
2023-03-06T05:18:22.167Z,100.00
2023-03-06T05:20:48.733Z,100.00
2023-03-06T05:23:15.224Z,100.00
2023-03-06T05:25:42.299Z,100.00
2023-03-06T05:28:09.110Z,100.00
2023-03-06T05:30:35.897Z,100.00
2023-03-06T05:33:02.413Z,100.00
2023-03-06T05:35:28.952Z,100.00
2023-03-06T05:37:55.388Z,100.00
2023-03-06T05:40:22.378Z,100.00
2023-03-06T05:42:48.998Z,100.00
2023-03-06T05:45:15.614Z,100.00
2023-03-06T05:47:42.094Z,100.00
2023-03-06T05:50:10.465Z,100.00
2023-03-06T05:52:39.592Z,100.00
2023-03-06T05:55:07.404Z,100.00
2023-03-06T05:57:34.047Z,100.00
2023-03-06T06:00:00.618Z,100.00
2023-03-06T06:02:27.158Z,100.00
2023-03-06T06:04:53.640Z,100.00
2023-03-06T06:07:20.071Z,100.00
2023-03-06T06:09:46.640Z,100.00
2023-03-06T06:12:14.035Z,100.00
2023-03-06T06:14:40.531Z,100.00
2023-03-06T06:17:07.520Z,100.00
2023-03-06T06:19:34.020Z,100.00
2023-03-06T06:22:02.563Z,100.00
2023-03-06T06:24:29.554Z,100.00
2023-03-06T06:26:57.160Z,100.00
2023-03-06T06:29:25.410Z,100.00
2023-03-06T06:31:52.818Z,100.00
2023-03-06T06:34:20.387Z,100.00
2023-03-06T06:36:47.115Z,100.00
2023-03-06T06:39:18.003Z,100.00
2023-03-06T06:42:02.341Z,100.00
2023-03-06T06:44:31.791Z,100.00
2023-03-06T06:49:46.429Z,100.00
2023-03-06T06:52:12.874Z,100.00
2023-03-06T06:54:39.318Z,100.00
2023-03-06T06:57:05.781Z,100.00
2023-03-06T06:59:32.252Z,100.00
2023-03-06T07:01:58.736Z,100.00
2023-03-06T07:04:25.224Z,100.00
2023-03-06T07:06:55.626Z,100.00
2023-03-06T07:09:22.330Z,100.00
2023-03-06T07:11:48.853Z,100.00
2023-03-06T07:14:15.375Z,100.00
2023-03-06T07:16:41.984Z,100.00
2023-03-06T07:19:08.428Z,100.00
2023-03-06T07:21:34.986Z,100.00
2023-03-06T07:24:01.595Z,100.00
2023-03-06T07:26:28.645Z,100.00
2023-03-06T07:28:55.353Z,100.00
2023-03-06T07:31:24.760Z,99.63
2023-03-06T07:33:53.051Z,99.91
2023-03-06T07:36:20.896Z,99.09
2023-03-06T07:38:47.646Z,99.42
2023-03-06T07:41:16.307Z,98.71
2023-03-06T07:43:44.499Z,98.41
2023-03-06T07:46:12.782Z,98.37
2023-03-06T07:48:40.349Z,97.68
2023-03-06T07:51:18.679Z,96.58
2023-03-06T07:53:45.319Z,96.56
2023-03-06T07:56:12.887Z,95.62
2023-03-06T07:58:41.586Z,95.32
2023-03-06T08:01:10.956Z,94.32
2023-03-06T08:03:37.697Z,93.95
2023-03-06T08:06:12.179Z,92.87
2023-03-06T08:08:40.397Z,92.63
2023-03-06T08:11:08.580Z,91.99
2023-03-06T08:13:35.793Z,91.25
2023-03-06T08:16:02.824Z,89.95
2023-03-06T08:18:29.635Z,89.36
2023-03-06T08:21:07.694Z,88.76
2023-03-06T08:23:34.779Z,88.79
2023-03-06T08:26:10.559Z,88.53
2023-03-06T08:28:39.238Z,88.20
2023-03-06T08:31:23.813Z,87.93
2023-03-06T08:33:53.991Z,87.30
2023-03-06T08:36:20.547Z,87.73
2023-03-06T08:38:47.040Z,86.97
2023-03-06T08:41:13.510Z,87.17
2023-03-06T08:43:40.266Z,86.27
2023-03-06T08:46:06.873Z,86.01
2023-03-06T08:48:33.493Z,84.61
2023-03-06T08:50:59.957Z,84.77
2023-03-06T08:53:41.612Z,83.56
2023-03-06T08:56:18.474Z,84.34
2023-03-06T08:58:45.699Z,83.93
2023-03-06T09:01:21.186Z,82.97
2023-03-06T09:03:48.154Z,82.19
2023-03-06T09:06:15.204Z,80.64
2023-03-06T09:08:43.863Z,80.79
2023-03-06T09:11:12.697Z,80.01
2023-03-06T09:13:39.682Z,79.64
2023-03-06T09:16:06.830Z,78.29
2023-03-06T09:18:33.524Z,78.86
2023-03-06T09:21:00.134Z,79.35
2023-03-06T09:23:26.603Z,79.15
2023-03-06T09:25:54.317Z,77.96
2023-03-06T09:28:20.988Z,76.81
2023-03-06T09:30:47.892Z,76.19
2023-03-06T09:33:14.777Z,75.39
2023-03-06T09:35:49.215Z,76.30
2023-03-06T09:38:15.754Z,75.70
2023-03-06T09:40:55.444Z,74.82
2023-03-06T09:43:29.511Z,73.74
2023-03-06T09:45:57.333Z,73.20
2023-03-06T09:48:38.130Z,72.80
2023-03-06T09:51:15.065Z,73.85
2023-03-06T09:53:49.837Z,74.44
2023-03-06T09:56:19.644Z,73.77
2023-03-06T09:58:55.794Z,73.07
2023-03-06T10:01:27.949Z,70.80
2023-03-06T10:04:04.611Z,69.79
2023-03-06T10:06:41.311Z,70.09
2023-03-06T10:09:17.296Z,69.60
2023-03-06T10:11:51.430Z,68.84
2023-03-06T10:14:21.501Z,66.20
2023-03-06T10:16:48.133Z,67.33
2023-03-06T10:19:20.115Z,65.00
2023-03-06T10:22:06.017Z,63.75
2023-03-06T10:24:42.333Z,63.58
2023-03-06T10:27:27.633Z,62.95
2023-03-06T10:30:32.673Z,62.64
2023-03-06T10:33:33.512Z,62.49
2023-03-06T10:36:00.185Z,62.19
2023-03-06T10:38:37.649Z,62.73
2023-03-06T10:41:07.322Z,61.19
2023-03-06T10:43:36.552Z,61.50
2023-03-06T10:46:05.250Z,60.68
2023-03-06T10:48:35.968Z,60.70
2023-03-06T10:51:19.528Z,61.76
2023-03-06T10:53:52.075Z,61.08
2023-03-06T10:56:36.852Z,61.57
2023-03-06T10:59:35.687Z,60.23
2023-03-06T11:02:25.643Z,61.19
2023-03-06T11:04:54.232Z,62.13
2023-03-06T11:07:32.639Z,61.71
2023-03-06T11:10:01.758Z,60.22
2023-03-06T11:12:34.294Z,60.27
2023-03-06T11:15:07.245Z,61.16
2023-03-06T11:17:58.996Z,60.26
2023-03-06T11:20:44.621Z,58.76
2023-03-06T11:23:30.183Z,57.45
2023-03-06T11:26:03.083Z,57.03
2023-03-06T11:28:58.984Z,58.98
2023-03-06T11:31:37.097Z,59.08
2023-03-06T11:34:23.212Z,58.35
2023-03-06T11:37:08.406Z,58.76
2023-03-06T11:39:47.894Z,58.37
2023-03-06T11:42:17.291Z,58.26
2023-03-06T11:45:09.978Z,59.13
2023-03-06T11:47:48.424Z,59.58
2023-03-06T11:50:35.791Z,60.04
2023-03-06T11:53:05.183Z,58.93
2023-03-06T11:55:40.669Z,59.52
2023-03-06T11:58:44.590Z,59.44
2023-03-06T12:01:26.910Z,60.55
2023-03-06T12:04:23.239Z,60.82
2023-03-06T12:07:10.926Z,59.86
2023-03-06T12:09:55.029Z,61.30
2023-03-06T12:12:42.836Z,61.35
2023-03-06T12:15:45.832Z,62.02
2023-03-06T12:19:03.113Z,62.54
2023-03-06T12:22:00.036Z,62.64
2023-03-06T12:24:34.971Z,63.54
2023-03-06T12:27:04.569Z,64.07
2023-03-06T12:29:45.944Z,64.03
2023-03-06T12:32:31.163Z,64.74
2023-03-06T12:35:12.435Z,64.33
2023-03-06T12:37:55.065Z,63.94
2023-03-06T12:40:39.862Z,63.14
2023-03-06T12:43:10.253Z,63.83
2023-03-06T12:45:38.166Z,64.61
2023-03-06T12:48:14.769Z,64.57
2023-03-06T12:50:44.464Z,64.17
2023-03-06T12:53:29.898Z,65.53
2023-03-06T12:55:58.706Z,66.04
2023-03-06T12:58:28.223Z,66.66
2023-03-06T13:01:05.806Z,66.55
2023-03-06T13:04:00.225Z,66.37
2023-03-06T13:06:57.514Z,66.33
2023-03-06T13:09:53.816Z,66.14
2023-03-06T13:12:40.221Z,65.55
2023-03-06T13:15:31.524Z,66.14
2023-03-06T13:17:58.169Z,65.98
2023-03-06T13:20:38.347Z,65.69
2023-03-06T13:23:33.015Z,65.99
2023-03-06T13:26:00.457Z,65.83
2023-03-06T13:28:40.108Z,66.17
2023-03-06T13:31:10.627Z,66.53
2023-03-06T13:33:39.052Z,65.53
2023-03-06T13:36:30.362Z,65.98
2023-03-06T13:39:03.836Z,65.66
2023-03-06T13:41:30.349Z,66.48
2023-03-06T13:43:58.953Z,66.90
2023-03-06T13:46:30.871Z,67.79
2023-03-06T13:49:09.545Z,66.71
2023-03-06T13:51:38.924Z,67.40
2023-03-06T13:54:36.415Z,67.66
2023-03-06T13:57:21.687Z,68.33
2023-03-06T14:00:33.531Z,68.84
2023-03-06T14:03:08.987Z,68.83
2023-03-06T14:05:49.600Z,68.83
2023-03-06T14:08:30.271Z,68.80
2023-03-06T14:11:22.986Z,69.00
2023-03-06T14:13:55.552Z,68.80
2023-03-06T14:16:24.517Z,68.50
2023-03-06T14:18:53.772Z,68.51
2023-03-06T14:21:30.902Z,67.46
2023-03-06T14:24:03.183Z,66.98
2023-03-06T14:26:40.023Z,66.37
2023-03-06T14:29:28.224Z,68.21
2023-03-06T14:31:59.888Z,68.42
2023-03-06T14:34:29.948Z,71.38
2023-03-06T14:37:18.308Z,72.71
2023-03-06T14:39:45.479Z,73.99
2023-03-06T14:42:26.480Z,74.73
2023-03-06T14:45:13.556Z,74.85
2023-03-06T14:47:39.968Z,75.60
2023-03-06T14:50:40.926Z,71.56
2023-03-06T14:53:29.066Z,71.25
2023-03-06T14:56:01.611Z,73.49
2023-03-06T14:59:04.890Z,74.68
2023-03-06T15:01:38.395Z,74.79
2023-03-06T15:04:28.810Z,73.05
2023-03-06T15:06:56.622Z,71.72
2023-03-06T15:09:46.344Z,72.91
2023-03-06T15:12:19.737Z,71.58
2023-03-06T15:15:29.443Z,70.58
2023-03-06T15:17:56.146Z,70.69
2023-03-06T15:20:41.472Z,70.56
2023-03-06T15:23:24.550Z,69.39
2023-03-06T15:26:00.368Z,67.82
2023-03-06T15:28:38.616Z,70.13
2023-03-06T15:31:05.115Z,70.28
2023-03-06T15:33:31.619Z,69.93
2023-03-06T15:36:01.760Z,69.03
2023-03-06T15:38:41.751Z,68.56
2023-03-06T15:41:22.790Z,67.75
2023-03-06T15:43:49.398Z,66.85
2023-03-06T15:46:15.924Z,66.79
2023-03-06T15:49:13.909Z,67.00
2023-03-06T15:51:40.772Z,66.73
2023-03-06T15:54:12.310Z,66.60
2023-03-06T15:56:41.697Z,67.21
2023-03-06T15:59:15.347Z,68.30
2023-03-06T16:01:43.298Z,68.34
2023-03-06T16:04:09.967Z,68.69
2023-03-06T16:06:37.633Z,69.69
2023-03-06T16:09:05.759Z,69.93
2023-03-06T16:11:43.233Z,70.86
2023-03-06T16:14:21.023Z,72.91
2023-03-06T16:16:48.690Z,75.09
2023-03-06T16:19:28.137Z,76.88
2023-03-06T16:21:56.386Z,78.98
2023-03-06T16:24:23.544Z,80.30
2023-03-06T16:26:51.828Z,81.53
2023-03-06T16:29:23.468Z,82.82
2023-03-06T16:31:50.064Z,83.39
2023-03-06T16:34:19.634Z,84.46
2023-03-06T16:36:48.221Z,85.30
2023-03-06T16:39:16.997Z,86.07
2023-03-06T16:41:45.837Z,87.47
2023-03-06T16:44:12.980Z,87.62
2023-03-06T16:46:45.210Z,88.08
2023-03-06T16:49:22.823Z,88.86
2023-03-06T16:51:50.164Z,89.96
2023-03-06T16:54:17.328Z,90.04
2023-03-06T16:56:44.225Z,89.58
2023-03-06T16:59:11.966Z,89.77
2023-03-06T17:01:42.652Z,90.50
2023-03-06T17:04:09.447Z,90.03
2023-03-06T17:06:35.911Z,90.53
2023-03-06T17:09:02.368Z,92.02
2023-03-06T17:11:29.361Z,91.83
2023-03-06T17:13:55.879Z,91.59
2023-03-06T17:16:22.427Z,92.42
2023-03-06T17:18:49.596Z,92.18
2023-03-06T17:21:16.308Z,92.67
2023-03-06T17:23:43.096Z,92.67
2023-03-06T17:26:18.048Z,93.32
2023-03-06T17:28:45.501Z,93.30
2023-03-06T17:31:16.461Z,93.37
2023-03-06T17:33:43.652Z,92.99
2023-03-06T17:36:10.904Z,92.86
2023-03-06T17:38:37.631Z,93.42
2023-03-06T17:41:05.928Z,93.24
2023-03-06T17:43:33.556Z,92.74
2023-03-06T17:46:18.544Z,93.54
2023-03-06T17:48:45.390Z,93.00
2023-03-06T17:51:12.047Z,92.13
2023-03-06T17:53:39.339Z,92.24
2023-03-06T17:56:08.771Z,92.47
2023-03-06T17:58:35.408Z,91.29
2023-03-06T18:01:13.401Z,90.89
2023-03-06T18:03:44.372Z,90.65
2023-03-06T18:06:10.923Z,90.45
2023-03-06T18:08:38.055Z,90.20
2023-03-06T18:11:06.745Z,90.51
2023-03-06T18:13:34.690Z,90.67
2023-03-06T18:16:01.492Z,91.20
2023-03-06T18:18:28.438Z,91.03
2023-03-06T18:20:55.119Z,91.27
2023-03-06T18:23:21.724Z,90.93
2023-03-06T18:25:48.335Z,91.42
2023-03-06T18:28:14.724Z,91.61
2023-03-06T18:30:42.319Z,91.99
2023-03-06T18:33:09.834Z,93.80
2023-03-06T18:35:36.805Z,93.63
2023-03-06T18:38:03.557Z,93.74
2023-03-06T18:40:30.092Z,94.23
2023-03-06T18:42:56.686Z,94.47
2023-03-06T18:45:23.167Z,95.04
2023-03-06T18:47:49.586Z,95.30
2023-03-06T18:50:17.610Z,95.11
2023-03-06T18:52:44.751Z,94.55
2023-03-06T18:55:12.158Z,94.92
2023-03-06T18:57:39.161Z,94.87
2023-03-06T19:00:07.750Z,95.49
2023-03-06T19:02:34.537Z,95.51
2023-03-06T19:05:00.970Z,95.21
2023-03-06T19:07:27.425Z,95.65
2023-03-06T19:09:53.966Z,96.75
2023-03-06T19:12:20.595Z,96.08
2023-03-06T19:14:47.091Z,95.71
2023-03-06T19:17:13.571Z,96.01
2023-03-06T19:19:40.082Z,96.03
2023-03-06T19:22:06.558Z,96.44
2023-03-06T19:24:32.980Z,96.13
2023-03-06T19:26:59.404Z,96.69
2023-03-06T19:29:25.952Z,96.60
2023-03-06T19:31:52.486Z,97.72
2023-03-06T19:34:19.103Z,97.52
2023-03-06T19:36:45.526Z,97.17
2023-03-06T19:39:12.102Z,96.88
2023-03-06T19:41:38.517Z,97.77
2023-03-06T19:44:05.822Z,97.88
2023-03-06T19:46:32.449Z,97.98
2023-03-06T19:49:01.396Z,98.83
2023-03-06T19:51:28.985Z,99.15
2023-03-06T19:53:56.718Z,99.21
2023-03-06T19:56:28.988Z,99.57
2023-03-06T19:58:56.219Z,100.00
2023-03-06T20:01:24.885Z,100.00
2023-03-06T20:03:58.915Z,100.00
2023-03-06T20:06:27.905Z,99.82
2023-03-06T20:08:54.599Z,100.00
2023-03-06T20:11:26.618Z,100.00
2023-03-06T20:13:53.479Z,100.00
2023-03-06T20:16:20.320Z,100.00
2023-03-06T20:18:46.861Z,100.00
2023-03-06T20:21:14.534Z,100.00
2023-03-06T20:23:41.358Z,100.00
2023-03-06T20:26:10.697Z,100.00
2023-03-06T20:28:39.180Z,100.00
2023-03-06T20:31:16.309Z,100.00
2023-03-06T20:33:43.834Z,100.00
2023-03-06T20:36:24.434Z,100.00
2023-03-06T20:38:51.008Z,100.00
2023-03-06T20:41:20.720Z,100.00
2023-03-06T20:43:47.391Z,100.00
2023-03-06T20:46:14.378Z,100.00
2023-03-06T20:48:41.999Z,100.00
2023-03-06T20:51:21.047Z,100.00
2023-03-06T20:53:49.071Z,100.00
2023-03-06T20:56:20.241Z,100.00
2023-03-06T20:58:46.960Z,100.00
2023-03-06T21:01:27.510Z,100.00
2023-03-06T21:03:55.009Z,100.00
2023-03-06T21:06:21.498Z,100.00
2023-03-06T21:08:48.631Z,100.00
2023-03-06T21:11:16.129Z,100.00
2023-03-06T21:13:43.012Z,100.00
2023-03-06T21:16:15.269Z,100.00
2023-03-06T21:18:42.329Z,100.00
2023-03-06T21:21:11.304Z,100.00
2023-03-06T21:23:38.141Z,100.00
2023-03-06T21:26:05.512Z,100.00
2023-03-06T21:28:32.434Z,100.00
2023-03-06T21:31:02.490Z,100.00
2023-03-06T21:33:29.291Z,100.00
2023-03-06T21:35:55.798Z,100.00
2023-03-06T21:38:22.284Z,100.00
2023-03-06T21:40:48.697Z,100.00
2023-03-06T21:43:17.396Z,100.00
2023-03-06T21:45:46.053Z,100.00
2023-03-06T21:48:14.428Z,100.00
2023-03-06T21:50:41.418Z,100.00
2023-03-06T21:53:08.572Z,100.00
2023-03-06T21:55:38.816Z,100.00
2023-03-06T21:58:05.498Z,100.00
2023-03-06T22:00:36.072Z,100.00
2023-03-06T22:03:03.553Z,100.00
2023-03-06T22:05:31.905Z,100.00
2023-03-06T22:07:59.223Z,100.00
2023-03-06T22:10:25.736Z,100.00
2023-03-06T22:12:52.365Z,100.00
2023-03-06T22:15:21.738Z,100.00
2023-03-06T22:17:48.574Z,100.00
2023-03-06T22:20:15.447Z,100.00
2023-03-06T22:22:42.322Z,100.00
2023-03-06T22:25:09.221Z,100.00
2023-03-06T22:27:35.957Z,100.00
2023-03-06T22:30:02.525Z,100.00
2023-03-06T22:32:29.035Z,100.00
2023-03-06T22:34:55.490Z,100.00
2023-03-06T22:37:21.956Z,100.00
2023-03-06T22:39:48.438Z,100.00
2023-03-06T22:42:14.966Z,100.00
2023-03-06T22:44:41.437Z,100.00
2023-03-06T22:47:08.189Z,100.00
2023-03-06T22:49:34.837Z,100.00
2023-03-06T22:52:01.342Z,100.00
2023-03-06T22:54:27.761Z,100.00
2023-03-06T22:56:54.239Z,100.00
2023-03-06T22:59:20.627Z,100.00
2023-03-06T23:01:47.112Z,100.00
2023-03-06T23:04:13.627Z,100.00
2023-03-06T23:06:42.004Z,100.00
2023-03-06T23:09:20.452Z,100.00
2023-03-06T23:11:47.826Z,100.00
2023-03-06T23:14:15.525Z,100.00
2023-03-06T23:16:42.124Z,100.00
2023-03-06T23:19:08.857Z,100.00
2023-03-06T23:21:35.655Z,100.00
2023-03-06T23:24:02.842Z,100.00
2023-03-06T23:26:31.341Z,100.00
2023-03-06T23:28:58.117Z,100.00
2023-03-06T23:31:28.796Z,100.00
2023-03-06T23:34:00.341Z,100.00
2023-03-06T23:36:28.212Z,100.00
2023-03-06T23:38:55.010Z,100.00
2023-03-06T23:41:22.363Z,100.00
2023-03-06T23:43:49.601Z,100.00
2023-03-06T23:46:17.803Z,100.00
2023-03-06T23:48:44.988Z,100.00
2023-03-06T23:51:20.622Z,100.00
2023-03-06T23:53:52.680Z,100.00
2023-03-06T23:56:19.089Z,100.00
2023-03-06T23:58:45.742Z,100.00
